Terminal Aerodrome Forecast
Issued by NWS Wilmington, OH

Current Version | Previous Version | Text Only | Print | Product List | Glossary Off
Versions: 1 2 3 4 5 6 7 8 9 10 11 12 13 14 15 16 17 18 19 20 21 22 23 24 25 26 27 28 29 30 31

000
FTUS41 KILN 191400 AAA
TAFDAY
TAF AMD
KDAY 191458Z 1915/2012 11014KT P6SM VCSH SCT060 BKN090 OVC250
     FM191800 12016G26KT 5SM -SHRA OVC025
     FM192200 17018G28KT 4SM -SHRA OVC015
     FM200200 21014G22KT P6SM VCSH OVC020
     FM201100 18012G20KT P6SM VCSH OVC015=

USA.gov is the U.S. government's official web portal to all federal, state and local government web resources and services.